This is the latest recevied weather packets stored in our database for station/object NQ9F. If no packets are shown the sender has not sent any weather packets the latest 1 day(s).
| Time | Temp. | Humidity | Pressure | Rain* | Wind** | Luminosity | Snow |
|---|---|---|---|---|---|---|---|
| 1777998738 | 26.67° C | 71% | 1005.4 hPa | 0 mm | 4.92 m/s, 222° | 770 W/m² | - |
| 1777998434 | 26.11° C | 72% | 1005.1 hPa | 0 mm | 3.13 m/s, 191° | 586 W/m² | - |
| 1777998132 | 26.11° C | 73% | 1005 hPa | 0 mm | 4.02 m/s, 192° | 430 W/m² | - |
| 1777997828 | 26.11° C | 73% | 1004.9 hPa | 0 mm | 2.68 m/s, 195° | 432 W/m² | - |
| 1777997526 | 25.56° C | 74% | 1005 hPa | 0 mm | 3.58 m/s, 206° | 469 W/m² | - |
| 1777997224 | 25.56° C | 75% | 1004.6 hPa | 0 mm | 2.68 m/s, 205° | 465 W/m² | - |
| 1777996921 | 25° C | 76% | 1004.6 hPa | 0 mm | 4.47 m/s, 199° | 385 W/m² | - |
| 1777996617 | 25° C | 76% | 1004.4 hPa | 0 mm | 4.02 m/s, 186° | 454 W/m² | - |
| 1777996313 | 25° C | 77% | 1004.6 hPa | 0 mm | 5.36 m/s, 224° | 509 W/m² | - |
| 1777996010 | 24.44° C | 78% | 1004.6 hPa | 0 mm | 4.92 m/s, 212° | 389 W/m² | - |
| 1777995706 | 24.44° C | 78% | 1004.6 hPa | 0 mm | 9.39 m/s, 216° | 402 W/m² | - |
| 1777995403 | 23.89° C | 79% | 1004.6 hPa | 0 mm | 5.81 m/s, 205° | 433 W/m² | - |
| 1777995100 | 23.89° C | 79% | 1004.4 hPa | 0 mm | 5.36 m/s, 199° | 336 W/m² | - |
| 1777994797 | 23.89° C | 80% | 1004.6 hPa | 0 mm | 3.58 m/s, 204° | 300 W/m² | - |
| 1777994493 | 23.89° C | 79% | 1004.7 hPa | 0 mm | 4.02 m/s, 221° | 297 W/m² | - |
| 1777994188 | 23.33° C | 79% | 1004.4 hPa | 0 mm | 10.73 m/s, 220° | 337 W/m² | - |
| 1777993886 | 23.33° C | 80% | 1004.7 hPa | 0 mm | 4.92 m/s, 218° | 257 W/m² | - |
| 1777993581 | 23.33° C | 80% | 1004.6 hPa | 0 mm | 4.92 m/s, 208° | 244 W/m² | - |
| 1777993279 | 23.33° C | 81% | 1004.3 hPa | 0 mm | 2.24 m/s, 197° | 235 W/m² | - |
| 1777992974 | 23.33° C | 80% | 1004.3 hPa | 0 mm | 8.49 m/s, 201° | 271 W/m² | - |
| 1777992673 | 23.33° C | 80% | 1004.2 hPa | 0 mm | 4.47 m/s, 215° | 272 W/m² | - |
| 1777992370 | 23.33° C | 81% | 1004.2 hPa | 0 mm | 3.13 m/s, 195° | 306 W/m² | - |
| 1777992068 | 22.78° C | 82% | 1003.9 hPa | 0 mm | 3.58 m/s, 182° | 336 W/m² | - |
| 1777991765 | 22.22° C | 83% | 1004.1 hPa | 0 mm | 8.05 m/s, 201° | 243 W/m² | - |
| 1777991462 | 22.22° C | 84% | 1004 hPa | 0 mm | 3.58 m/s, 181° | 224 W/m² | - |
* Rain latest hour (hover to see other rain measurements)
** Current wind speed in m/s (hover to see current wind gust speed)